Time;durP1;ratioP1;P1;durP2;ratioP2;P2;SDS_P1;SDS_P2;PMS_P1;PMS_P2;Temp;Humidity;BMP_temperature;BMP_pressure;BME280_temperature;BME280_humidity;BME280_pressure;Samples;Min_cycle;Max_cycle;Signal;HPM_P1;HPM_P2
2023/05/12 06:34:53;;;;;;;;;5.00;5.00;;;;;;;;6363109;22;45432;-71
2023/05/12 06:37:18;;;;;;;;;3.75;3.00;;;;;;;;6371017;22;45263;-71
2023/05/12 06:39:43;;;;;;;;;8.00;4.75;;;;;;;;6372211;22;45329;-72
2023/05/12 06:42:10;;;;;;;;;4.75;3.00;;;;;;;;6371948;22;45528;-72
2023/05/12 06:44:35;;;;;;;;;5.25;2.75;;;;;;;;6371328;22;45420;-72
2023/05/12 06:47:00;;;;;;;;;3.00;3.00;;;;;;;;6371604;22;45268;-71
2023/05/12 06:49:25;;;;;;;;;4.00;4.00;;;;;;;;6370749;22;45147;-71
2023/05/12 06:51:50;;;;;;;;;3.50;3.50;;;;;;;;6371835;22;45155;-72
2023/05/12 06:54:16;;;;;;;;;4.50;3.00;;;;;;;;6371098;22;45186;-71
2023/05/12 06:56:41;;;;;;;;;5.33;3.00;;;;;;;;6342189;22;46925;-71
2023/05/12 06:59:06;;;;;;;;;5.67;2.67;;;;;;;;6371103;22;45211;-71
2023/05/12 07:01:31;;;;;;;;;5.75;4.25;;;;;;;;6371994;22;45161;-72
2023/05/12 07:03:57;;;;;;;;;8.00;5.00;;;;;;;;6370485;22;45318;-72
2023/05/12 07:06:26;;;;;;;;;5.00;5.00;;;;;;;;6342770;22;46267;-72
2023/05/12 07:08:51;;;;;;;;;4.33;4.00;;;;;;;;6371725;22;45418;-71
2023/05/12 07:11:18;;;;;;;;;6.00;6.00;;;;;;;;6372268;22;45217;-72
2023/05/12 07:13:53;;;;;;;;;5.00;4.33;;;;;;;;6372506;22;45183;-72
2023/05/12 07:16:18;;;;;;;;;8.33;5.00;;;;;;;;6372211;22;45386;-72
2023/05/12 07:18:44;;;;;;;;;6.67;3.33;;;;;;;;6371814;22;45230;-71
2023/05/12 07:21:09;;;;;;;;;2.00;2.00;;;;;;;;6372807;22;45204;-72
2023/05/12 07:23:35;;;;;;;;;5.00;5.00;;;;;;;;6372427;22;46061;-73
2023/05/12 07:26:01;;;;;;;;;3.00;3.00;;;;;;;;6372470;22;45466;-72
2023/05/12 07:28:28;;;;;;;;;4.00;4.00;;;;;;;;6372758;22;45189;-73
2023/05/12 07:30:53;;;;;;;;;6.00;4.00;;;;;;;;6343470;22;45283;-73
2023/05/12 07:33:18;;;;;;;;;6.67;5.00;;;;;;;;6342515;22;45439;-73
2023/05/12 07:35:44;;;;;;;;;5.00;3.00;;;;;;;;6372495;22;45442;-72
2023/05/12 07:38:09;;;;;;;;;5.00;3.00;;;;;;;;6372343;22;45298;-73
2023/05/12 07:40:34;;;;;;;;;4.00;4.00;;;;;;;;6372487;22;45392;-73
2023/05/12 07:43:01;;;;;;;;;6.00;5.00;;;;;;;;6339750;22;45890;-73
2023/05/12 07:45:26;;;;;;;;;5.00;4.00;;;;;;;;6343157;22;48415;-73
2023/05/12 07:47:51;;;;;;;;;7.00;5.67;;;;;;;;6371729;22;45337;-72
2023/05/12 07:50:17;;;;;;;;;6.00;4.00;;;;;;;;6371833;22;45495;-73
2023/05/12 07:52:46;;;;;;;;;6.00;4.00;;;;;;;;6372152;22;45164;-73
2023/05/12 07:55:12;;;;;;;;;6.33;4.67;;;;;;;;6371986;22;45883;-72
2023/05/12 07:57:37;;;;;;;;;3.00;3.00;;;;;;;;6371693;22;45088;-73
2023/05/12 08:00:03;;;;;;;;;6.00;5.00;;;;;;;;6372632;22;45517;-72
2023/05/12 08:02:29;;;;;;;;;7.33;4.00;;;;;;;;6342689;22;45326;-72
2023/05/12 08:04:54;;;;;;;;;5.00;5.00;;;;;;;;6371379;22;45341;-72
2023/05/12 08:07:19;;;;;;;;;3.00;3.00;;;;;;;;6370805;22;45296;-73
2023/05/12 08:09:44;;;;;;;;;7.00;5.33;;;;;;;;6343306;22;45421;-73
2023/05/12 08:12:09;;;;;;;;;4.33;4.00;;;;;;;;6372004;22;45368;-73
2023/05/12 08:14:35;;;;;;;;;8.00;5.00;;;;;;;;6370895;22;46136;-73
2023/05/12 08:17:00;;;;;;;;;6.67;6.00;;;;;;;;6343401;22;45778;-73
2023/05/12 08:19:25;;;;;;;;;3.33;3.00;;;;;;;;6342700;22;45239;-72
2023/05/12 08:21:50;;;;;;;;;4.67;4.00;;;;;;;;6343119;22;45700;-73
2023/05/12 08:24:16;;;;;;;;;7.67;5.00;;;;;;;;6371658;22;46261;-73
2023/05/12 08:26:41;;;;;;;;;9.00;7.00;;;;;;;;6372180;22;45590;-73
2023/05/12 08:29:07;;;;;;;;;9.00;9.00;;;;;;;;6371834;22;45241;-73
2023/05/12 08:31:32;;;;;;;;;7.33;4.33;;;;;;;;6372395;22;45275;-73
2023/05/12 08:33:57;;;;;;;;;6.33;5.00;;;;;;;;6370941;22;45359;-72
2023/05/12 08:36:23;;;;;;;;;5.00;5.00;;;;;;;;6342810;22;45212;-72
2023/05/12 08:38:48;;;;;;;;;6.00;4.67;;;;;;;;6371400;22;45383;-73
2023/05/12 08:41:24;;;;;;;;;4.00;4.00;;;;;;;;6371405;22;45552;-73
2023/05/12 08:43:50;;;;;;;;;4.67;4.67;;;;;;;;6342679;22;47527;-71
2023/05/12 08:46:15;;;;;;;;;7.00;6.67;;;;;;;;6371333;22;45187;-73
2023/05/12 08:48:41;;;;;;;;;7.00;7.00;;;;;;;;6371632;22;45169;-72
2023/05/12 08:51:11;;;;;;;;;8.00;6.00;;;;;;;;6343461;22;46796;-73
2023/05/12 08:53:37;;;;;;;;;8.67;7.33;;;;;;;;6371646;22;45424;-72
2023/05/12 08:56:05;;;;;;;;;9.67;7.00;;;;;;;;6371793;22;45305;-73
2023/05/12 08:58:31;;;;;;;;;6.33;6.33;;;;;;;;6371291;22;45188;-70
2023/05/12 09:00:58;;;;;;;;;12.33;9.33;;;;;;;;6371661;22;45205;-74
2023/05/12 09:03:25;;;;;;;;;13.67;8.00;;;;;;;;6370263;22;47283;-71
2023/05/12 09:05:51;;;;;;;;;10.00;10.00;;;;;;;;6371979;22;45257;-71
2023/05/12 09:08:16;;;;;;;;;11.67;9.67;;;;;;;;6371149;22;45285;-72
2023/05/12 09:10:42;;;;;;;;;19.67;12.00;;;;;;;;6371874;22;45288;-72
2023/05/12 09:13:10;;;;;;;;;12.33;11.00;;;;;;;;6371197;22;45326;-71
2023/05/12 09:15:38;;;;;;;;;12.67;11.67;;;;;;;;6371774;22;45166;-72
2023/05/12 09:18:03;;;;;;;;;14.67;13.67;;;;;;;;6342278;22;45300;-72
2023/05/12 09:20:28;;;;;;;;;15.67;14.00;;;;;;;;6371158;22;45324;-73
2023/05/12 09:22:56;;;;;;;;;13.67;12.67;;;;;;;;6371120;22;45073;-72
2023/05/12 09:25:22;;;;;;;;;19.00;15.00;;;;;;;;6342431;22;45544;-73
2023/05/12 09:27:48;;;;;;;;;19.33;15.33;;;;;;;;6370927;22;45191;-73
2023/05/12 09:30:14;;;;;;;;;16.00;14.00;;;;;;;;6371442;22;45223;-73
2023/05/12 09:32:39;;;;;;;;;17.67;12.00;;;;;;;;6342400;22;46940;-73
2023/05/12 09:35:06;;;;;;;;;13.00;10.67;;;;;;;;6370055;22;45210;-74
2023/05/12 09:37:32;;;;;;;;;17.00;15.33;;;;;;;;6367013;22;45326;-72
2023/05/12 09:39:58;;;;;;;;;17.33;13.33;;;;;;;;6371547;22;45224;-72
2023/05/12 09:42:27;;;;;;;;;15.00;14.33;;;;;;;;6342927;22;46028;-72
2023/05/12 09:44:52;;;;;;;;;15.33;13.00;;;;;;;;6371271;22;45303;-73
2023/05/12 09:47:17;;;;;;;;;16.00;14.33;;;;;;;;6342157;22;45298;-73
2023/05/12 09:49:45;;;;;;;;;13.67;13.00;;;;;;;;6341626;22;45238;-73
2023/05/12 09:52:10;;;;;;;;;14.67;12.67;;;;;;;;6371562;22;45245;-72
2023/05/12 09:54:38;;;;;;;;;11.67;9.33;;;;;;;;6369091;22;45307;-72
2023/05/12 09:57:03;;;;;;;;;14.33;10.67;;;;;;;;6371975;22;45210;-72
2023/05/12 09:59:33;;;;;;;;;9.67;8.00;;;;;;;;6368610;22;44927;-72
2023/05/12 10:01:59;;;;;;;;;11.33;11.00;;;;;;;;6372105;22;45374;-73
2023/05/12 10:04:25;;;;;;;;;10.00;9.33;;;;;;;;6342034;22;45333;-71
2023/05/12 10:06:50;;;;;;;;;12.00;12.00;;;;;;;;6371570;22;45205;-72
2023/05/12 10:09:35;;;;;;;;;7.67;7.67;;;;;;;;6371201;22;45148;-72
2023/05/12 10:12:01;;;;;;;;;8.00;8.00;;;;;;;;6342398;22;47822;-72
2023/05/12 10:14:27;;;;;;;;;7.67;7.67;;;;;;;;6342167;22;45238;-72
2023/05/12 10:16:53;;;;;;;;;9.67;9.00;;;;;;;;6371634;22;45171;-72
2023/05/12 10:19:18;;;;;;;;;5.00;5.00;;;;;;;;6342312;22;45737;-72
2023/05/12 10:21:45;;;;;;;;;2.67;2.67;;;;;;;;6342674;22;45482;-72
2023/05/12 10:24:11;;;;;;;;;5.00;5.00;;;;;;;;6341853;22;45210;-73
2023/05/12 10:26:38;;;;;;;;;6.67;6.67;;;;;;;;6371637;22;45421;-72
2023/05/12 10:29:04;;;;;;;;;5.00;5.00;;;;;;;;6371297;22;45277;-72
2023/05/12 10:31:30;;;;;;;;;5.00;4.00;;;;;;;;6370909;22;45979;-74
2023/05/12 10:33:59;;;;;;;;;5.00;5.00;;;;;;;;6340848;22;45551;-72
2023/05/12 10:36:24;;;;;;;;;6.00;6.00;;;;;;;;6371887;22;45218;-71
2023/05/12 10:38:50;;;;;;;;;6.00;5.00;;;;;;;;6370449;22;45618;-71
2023/05/12 10:41:18;;;;;;;;;4.33;4.33;;;;;;;;6371295;22;45222;-72
2023/05/12 10:43:49;;;;;;;;;3.67;3.67;;;;;;;;6340672;22;45254;-72
2023/05/12 10:46:16;;;;;;;;;5.33;3.33;;;;;;;;6371234;22;45140;-71
2023/05/12 10:48:54;;;;;;;;;4.33;3.00;;;;;;;;6370121;22;45314;-72
2023/05/12 10:51:27;;;;;;;;;4.33;4.00;;;;;;;;6370798;22;45211;-71
2023/05/12 10:53:55;;;;;;;;;5.00;4.00;;;;;;;;6370784;22;45289;-72
2023/05/12 10:56:22;;;;;;;;;4.67;3.33;;;;;;;;6371145;22;45208;-74
2023/05/12 10:59:06;;;;;;;;;5.00;4.00;;;;;;;;6369580;22;45173;-73
2023/05/12 11:01:31;;;;;;;;;5.00;5.00;;;;;;;;6371043;22;45150;-73
2023/05/12 11:03:57;;;;;;;;;4.00;4.00;;;;;;;;6370702;22;45213;-72
2023/05/12 11:06:24;;;;;;;;;7.00;4.00;;;;;;;;6371302;22;45532;-72
2023/05/12 11:08:49;;;;;;;;;5.67;4.00;;;;;;;;6370540;22;45552;-73
2023/05/12 11:11:18;;;;;;;;;4.00;4.00;;;;;;;;6371362;22;46036;-74
2023/05/12 11:13:44;;;;;;;;;5.00;4.67;;;;;;;;6342160;22;45219;-74
2023/05/12 11:16:11;;;;;;;;;4.00;4.00;;;;;;;;6371703;22;45323;-73
2023/05/12 11:18:36;;;;;;;;;6.00;4.33;;;;;;;;6370024;22;45253;-73
2023/05/12 11:21:08;;;;;;;;;6.00;4.00;;;;;;;;6370383;22;46315;-73
2023/05/12 11:23:33;;;;;;;;;5.67;4.67;;;;;;;;6341040;22;45443;-73
2023/05/12 11:25:58;;;;;;;;;3.00;3.00;;;;;;;;6371233;22;45244;-72
2023/05/12 11:28:23;;;;;;;;;4.00;3.33;;;;;;;;6370654;22;45283;-72
2023/05/12 11:30:52;;;;;;;;;2.33;2.33;;;;;;;;6370895;22;45838;-72
2023/05/12 11:33:23;;;;;;;;;4.00;4.00;;;;;;;;6369841;22;45208;-72
2023/05/12 11:35:49;;;;;;;;;5.33;4.33;;;;;;;;6370293;22;45253;-72
2023/05/12 11:38:16;;;;;;;;;5.00;4.00;;;;;;;;6341247;22;45844;-72
2023/05/12 11:40:41;;;;;;;;;5.00;5.00;;;;;;;;6368983;22;45218;-72
2023/05/12 11:43:08;;;;;;;;;5.00;3.00;;;;;;;;6370518;22;45046;-72
2023/05/12 11:45:33;;;;;;;;;5.00;3.00;;;;;;;;6370599;22;45228;-72
2023/05/12 11:48:10;;;;;;;;;5.00;5.00;;;;;;;;6370125;22;45249;-72
2023/05/12 11:50:39;;;;;;;;;4.00;4.00;;;;;;;;6370262;22;45346;-72
2023/05/12 11:53:08;;;;;;;;;8.00;6.00;;;;;;;;6370441;22;45297;-72
2023/05/12 11:55:33;;;;;;;;;6.33;4.00;;;;;;;;6370702;22;45305;-72
2023/05/12 11:58:00;;;;;;;;;5.00;4.00;;;;;;;;6371879;22;45561;-72
2023/05/12 12:00:32;;;;;;;;;10.00;5.33;;;;;;;;6342979;22;46927;-72
2023/05/12 12:03:05;;;;;;;;;7.00;5.00;;;;;;;;6371313;22;45210;-72
2023/05/12 12:05:30;;;;;;;;;6.67;4.00;;;;;;;;6371688;22;45108;-72
2023/05/12 12:08:03;;;;;;;;;6.33;5.00;;;;;;;;6371493;22;45422;-72
2023/05/12 12:10:28;;;;;;;;;5.33;4.00;;;;;;;;6372088;22;45245;-72
2023/05/12 12:12:53;;;;;;;;;7.33;4.00;;;;;;;;6372147;22;45277;-72
2023/05/12 12:15:18;;;;;;;;;5.67;4.00;;;;;;;;6372423;22;45374;-72
2023/05/12 12:17:43;;;;;;;;;4.33;3.33;;;;;;;;6371655;22;45241;-72
2023/05/12 12:20:09;;;;;;;;;5.00;5.00;;;;;;;;6372342;22;46453;-72
2023/05/12 12:22:34;;;;;;;;;7.00;7.00;;;;;;;;6372344;22;45191;-72
2023/05/12 12:25:00;;;;;;;;;6.67;6.67;;;;;;;;6372853;22;45456;-72
2023/05/12 12:27:25;;;;;;;;;6.33;5.33;;;;;;;;6371479;22;45376;-72
2023/05/12 12:29:50;;;;;;;;;6.67;5.00;;;;;;;;6372311;22;45455;-72
2023/05/12 12:32:16;;;;;;;;;6.67;6.67;;;;;;;;6372353;22;45331;-72
2023/05/12 12:34:41;;;;;;;;;5.67;5.67;;;;;;;;6370560;22;44753;-72
2023/05/12 12:37:06;;;;;;;;;6.33;6.00;;;;;;;;6372616;22;45388;-72
2023/05/12 12:39:32;;;;;;;;;6.00;6.00;;;;;;;;6371795;22;46262;-71
2023/05/12 12:41:57;;;;;;;;;4.00;4.00;;;;;;;;6372501;22;45153;-72
2023/05/12 12:44:23;;;;;;;;;5.00;5.00;;;;;;;;6372410;22;45163;-72
2023/05/12 12:46:48;;;;;;;;;6.33;6.00;;;;;;;;6372073;22;45153;-72
2023/05/12 12:49:13;;;;;;;;;6.33;6.00;;;;;;;;6342530;22;46873;-72
2023/05/12 12:51:38;;;;;;;;;5.67;5.67;;;;;;;;6371919;22;45209;-73
2023/05/12 12:54:03;;;;;;;;;7.00;6.00;;;;;;;;6372213;22;45230;-72
2023/05/12 12:56:29;;;;;;;;;5.00;5.00;;;;;;;;6343215;22;46098;-72
2023/05/12 12:58:55;;;;;;;;;4.00;4.00;;;;;;;;6342851;22;46476;-72
2023/05/12 13:01:20;;;;;;;;;10.33;8.67;;;;;;;;6343206;22;45332;-71
2023/05/12 13:03:45;;;;;;;;;8.67;7.00;;;;;;;;6371523;22;45273;-71
2023/05/12 13:06:11;;;;;;;;;2.00;0.00;;;;;;;;6372038;22;45231;-72
2023/05/12 13:08:36;;;;;;;;;9.00;8.00;;;;;;;;6371381;22;45284;-72
2023/05/12 13:11:01;;;;;;;;;9.00;7.00;;;;;;;;6371668;22;45257;-71
2023/05/12 13:13:27;;;;;;;;;5.67;5.00;;;;;;;;6371544;22;45484;-72
2023/05/12 13:15:52;;;;;;;;;7.33;5.67;;;;;;;;6371901;22;45375;-72
2023/05/12 13:18:17;;;;;;;;;6.33;4.00;;;;;;;;6371772;22;45599;-72
2023/05/12 13:20:42;;;;;;;;;4.00;4.00;;;;;;;;6372255;22;45277;-72
2023/05/12 13:23:08;;;;;;;;;6.33;4.33;;;;;;;;6343345;22;45164;-72
2023/05/12 13:25:33;;;;;;;;;5.00;5.00;;;;;;;;6371797;22;45265;-72
2023/05/12 13:27:58;;;;;;;;;4.33;3.00;;;;;;;;6342953;22;46187;-72
2023/05/12 13:30:23;;;;;;;;;4.33;3.00;;;;;;;;6337618;22;45545;-72
2023/05/12 13:32:49;;;;;;;;;3.67;2.00;;;;;;;;6341170;22;45672;-72
2023/05/12 13:35:14;;;;;;;;;4.00;4.00;;;;;;;;6341279;22;46351;-71
2023/05/12 13:37:39;;;;;;;;;3.33;3.33;;;;;;;;6370735;22;45261;-71
2023/05/12 13:40:05;;;;;;;;;3.00;3.00;;;;;;;;6371196;22;45230;-72
2023/05/12 13:42:30;;;;;;;;;4.00;4.00;;;;;;;;6369336;22;45206;-73
2023/05/12 13:44:55;;;;;;;;;3.00;3.00;;;;;;;;6370431;22;45218;-73
2023/05/12 13:47:21;;;;;;;;;4.00;4.00;;;;;;;;6371317;22;45233;-73
2023/05/12 13:49:46;;;;;;;;;3.00;3.00;;;;;;;;6372134;22;45183;-73
2023/05/12 13:52:12;;;;;;;;;2.00;2.00;;;;;;;;6372515;22;45234;-73
2023/05/12 13:54:37;;;;;;;;;4.67;3.00;;;;;;;;6370764;22;45411;-73
2023/05/12 13:57:03;;;;;;;;;4.00;3.00;;;;;;;;6372321;22;46074;-73
2023/05/12 13:59:29;;;;;;;;;4.00;3.00;;;;;;;;6370937;22;45222;-73
2023/05/12 14:01:55;;;;;;;;;4.00;3.00;;;;;;;;6372022;22;45245;-73
2023/05/12 14:04:20;;;;;;;;;3.00;2.00;;;;;;;;6371228;22;45064;-72
2023/05/12 14:06:45;;;;;;;;;3.33;1.00;;;;;;;;6343104;22;46808;-73
2023/05/12 14:09:10;;;;;;;;;2.00;2.00;;;;;;;;6342924;22;45353;-73
2023/05/12 14:11:35;;;;;;;;;5.33;4.00;;;;;;;;6372139;22;45172;-73
2023/05/12 14:14:02;;;;;;;;;3.00;3.00;;;;;;;;6343275;22;45922;-73
2023/05/12 14:16:27;;;;;;;;;3.00;3.00;;;;;;;;6371966;22;45438;-73
2023/05/12 14:18:54;;;;;;;;;2.00;2.00;;;;;;;;6371070;22;45272;-73
2023/05/12 14:21:19;;;;;;;;;1.33;1.33;;;;;;;;6371964;22;45253;-72
2023/05/12 14:23:44;;;;;;;;;2.67;2.00;;;;;;;;6341681;22;45290;-73
2023/05/12 14:26:10;;;;;;;;;3.00;2.00;;;;;;;;6371538;22;46111;-73
2023/05/12 14:28:37;;;;;;;;;2.00;2.00;;;;;;;;6372142;22;45220;-73
2023/05/12 14:31:02;;;;;;;;;2.00;2.00;;;;;;;;6372011;22;45291;-73
2023/05/12 14:33:27;;;;;;;;;3.00;3.00;;;;;;;;6370296;22;45262;-72
2023/05/12 14:35:53;;;;;;;;;3.00;2.00;;;;;;;;6371835;22;45213;-73
2023/05/12 14:38:18;;;;;;;;;2.00;2.00;;;;;;;;6371503;22;45341;-72
2023/05/12 14:40:45;;;;;;;;;2.33;2.33;;;;;;;;6372393;22;45160;-73
2023/05/12 14:43:10;;;;;;;;;3.33;2.33;;;;;;;;6371590;22;45162;-73
2023/05/12 14:45:35;;;;;;;;;5.00;3.00;;;;;;;;6371408;22;45220;-73
2023/05/12 14:48:00;;;;;;;;;5.33;3.00;;;;;;;;6371396;22;45463;-72
2023/05/12 14:50:27;;;;;;;;;2.33;2.33;;;;;;;;6371612;22;45451;-74
2023/05/12 14:52:52;;;;;;;;;3.67;3.33;;;;;;;;6369892;22;45326;-73
2023/05/12 14:55:17;;;;;;;;;3.00;3.00;;;;;;;;6371287;22;45154;-73
2023/05/12 14:57:43;;;;;;;;;3.33;3.33;;;;;;;;6370110;22;45328;-72
2023/05/12 15:00:12;;;;;;;;;4.00;4.00;;;;;;;;6371864;22;45414;-72
2023/05/12 15:02:38;;;;;;;;;5.00;5.00;;;;;;;;6370928;22;45093;-73
2023/05/12 15:05:04;;;;;;;;;4.00;4.00;;;;;;;;6371054;22;46671;-73
2023/05/12 15:07:29;;;;;;;;;6.00;4.33;;;;;;;;6371394;22;45247;-73
2023/05/12 15:09:55;;;;;;;;;3.00;3.00;;;;;;;;6371702;22;44592;-73
2023/05/12 15:12:20;;;;;;;;;4.00;4.00;;;;;;;;6371624;22;45143;-73
2023/05/12 15:14:45;;;;;;;;;4.67;3.00;;;;;;;;6369628;22;45693;-73
2023/05/12 15:17:11;;;;;;;;;3.33;3.33;;;;;;;;6371508;22;45352;-73
2023/05/12 15:19:36;;;;;;;;;3.67;2.67;;;;;;;;6371528;22;45273;-73
2023/05/12 15:22:01;;;;;;;;;2.00;2.00;;;;;;;;6342434;22;45349;-73
2023/05/12 15:24:28;;;;;;;;;2.00;2.00;;;;;;;;6370308;22;45529;-73
2023/05/12 15:26:53;;;;;;;;;4.33;4.33;;;;;;;;6371354;22;45179;-73
2023/05/12 15:29:18;;;;;;;;;4.00;3.00;;;;;;;;6371227;22;45215;-74
2023/05/12 15:31:44;;;;;;;;;3.00;3.00;;;;;;;;6372602;22;45309;-73
2023/05/12 15:34:09;;;;;;;;;3.00;3.00;;;;;;;;6342286;22;47842;-72
2023/05/12 15:36:34;;;;;;;;;2.00;2.00;;;;;;;;6371237;22;45207;-73
2023/05/12 15:39:01;;;;;;;;;2.67;2.00;;;;;;;;6372593;22;45448;-73
2023/05/12 15:41:27;;;;;;;;;6.00;3.00;;;;;;;;6372679;22;45445;-73
2023/05/12 15:43:52;;;;;;;;;1.00;1.00;;;;;;;;6371902;22;45205;-73
2023/05/12 15:46:17;;;;;;;;;1.00;1.00;;;;;;;;6344015;22;45148;-73
2023/05/12 15:48:42;;;;;;;;;1.33;1.33;;;;;;;;6372147;22;45159;-73
2023/05/12 15:51:07;;;;;;;;;0.33;0.33;;;;;;;;6372728;22;45491;-73
2023/05/12 15:53:33;;;;;;;;;2.00;2.00;;;;;;;;6372282;22;46296;-73
2023/05/12 15:55:59;;;;;;;;;3.00;2.00;;;;;;;;6372616;22;45129;-73
2023/05/12 15:58:24;;;;;;;;;2.00;2.00;;;;;;;;6372629;22;45509;-73
2023/05/12 16:00:52;;;;;;;;;1.00;1.00;;;;;;;;6372664;22;45507;-73
2023/05/12 16:03:17;;;;;;;;;2.00;2.00;;;;;;;;6372011;22;45422;-73
2023/05/12 16:05:42;;;;;;;;;2.00;2.00;;;;;;;;6372592;22;45242;-73
2023/05/12 16:08:07;;;;;;;;;3.00;1.67;;;;;;;;6372251;22;45391;-73
2023/05/12 16:10:32;;;;;;;;;2.67;2.67;;;;;;;;6372571;22;45412;-73
2023/05/12 16:12:58;;;;;;;;;2.00;2.00;;;;;;;;6371916;22;45263;-73
2023/05/12 16:15:23;;;;;;;;;1.00;1.00;;;;;;;;6372415;22;45256;-73
2023/05/12 16:17:48;;;;;;;;;3.00;3.00;;;;;;;;6342869;22;45300;-71
2023/05/12 16:20:14;;;;;;;;;2.67;1.33;;;;;;;;6372607;22;45479;-72
2023/05/12 16:22:39;;;;;;;;;1.00;1.00;;;;;;;;6370852;22;45301;-73
2023/05/12 16:25:04;;;;;;;;;4.33;3.00;;;;;;;;6372284;22;44661;-72
2023/05/12 16:27:32;;;;;;;;;2.00;2.00;;;;;;;;6372129;22;45255;-72
2023/05/12 16:29:57;;;;;;;;;3.00;3.00;;;;;;;;6372003;22;45076;-72
2023/05/12 16:32:22;;;;;;;;;1.67;1.67;;;;;;;;6372103;22;45228;-72
2023/05/12 16:34:48;;;;;;;;;2.67;2.00;;;;;;;;6372001;22;45193;-71
2023/05/12 16:37:13;;;;;;;;;1.67;1.67;;;;;;;;6372978;22;45239;-71
2023/05/12 16:39:38;;;;;;;;;3.00;2.00;;;;;;;;6372135;22;45223;-71
2023/05/12 16:42:03;;;;;;;;;2.00;2.00;;;;;;;;6371987;22;45244;-73
2023/05/12 16:44:29;;;;;;;;;2.00;2.00;;;;;;;;6371938;22;45149;-72
2023/05/12 16:46:54;;;;;;;;;3.00;3.00;;;;;;;;6343601;22;45215;-73
2023/05/12 16:49:19;;;;;;;;;4.67;4.67;;;;;;;;6371689;22;45218;-72
2023/05/12 16:51:44;;;;;;;;;3.00;3.00;;;;;;;;6372340;22;45707;-74
2023/05/12 16:54:10;;;;;;;;;8.00;7.00;;;;;;;;6370912;22;45226;-74
2023/05/12 16:56:35;;;;;;;;;34.50;30.00;;;;;;;;6372782;22;45145;-73
2023/05/12 16:59:00;;;;;;;;;8.00;7.00;;;;;;;;6371529;22;47066;-73
2023/05/12 17:01:25;;;;;;;;;6.00;6.00;;;;;;;;6343415;22;46531;-73
2023/05/12 17:03:51;;;;;;;;;11.33;10.33;;;;;;;;6371798;22;45231;-73
2023/05/12 17:06:16;;;;;;;;;3.33;2.33;;;;;;;;6372668;22;45215;-73
2023/05/12 17:08:41;;;;;;;;;5.00;5.00;;;;;;;;6372258;22;45296;-73
2023/05/12 17:11:07;;;;;;;;;4.00;4.00;;;;;;;;6343795;22;47222;-73
2023/05/12 17:13:34;;;;;;;;;3.00;2.00;;;;;;;;6372196;22;45228;-73
2023/05/12 17:15:59;;;;;;;;;3.33;3.00;;;;;;;;6372543;22;45237;-73
2023/05/12 17:18:24;;;;;;;;;3.00;3.00;;;;;;;;6371910;22;45220;-73
2023/05/12 17:20:50;;;;;;;;;3.00;3.00;;;;;;;;6372392;22;45207;-73
2023/05/12 17:23:15;;;;;;;;;3.33;3.00;;;;;;;;6370667;22;45254;-73
2023/05/12 17:25:41;;;;;;;;;8.00;8.00;;;;;;;;6372493;22;45273;-73
2023/05/12 17:28:07;;;;;;;;;2.67;2.67;;;;;;;;6371864;22;45129;-73
2023/05/12 17:30:32;;;;;;;;;2.00;2.00;;;;;;;;6372131;22;46213;-73
2023/05/12 17:32:58;;;;;;;;;3.67;3.67;;;;;;;;6371791;22;45180;-73
2023/05/12 17:35:23;;;;;;;;;3.33;3.00;;;;;;;;6372257;22;45201;-73
2023/05/12 17:37:50;;;;;;;;;3.00;3.00;;;;;;;;6371885;22;45335;-73
2023/05/12 17:40:16;;;;;;;;;4.00;4.00;;;;;;;;6372319;22;45243;-72
2023/05/12 17:42:42;;;;;;;;;2.33;2.33;;;;;;;;6372160;22;44728;-74
2023/05/12 17:45:07;;;;;;;;;3.00;3.00;;;;;;;;6372306;22;45229;-73
2023/05/12 17:47:32;;;;;;;;;13.67;12.00;;;;;;;;6371919;22;45302;-73
2023/05/12 17:49:58;;;;;;;;;6.00;4.00;;;;;;;;6372192;22;45225;-73
2023/05/12 17:52:23;;;;;;;;;6.67;6.00;;;;;;;;6372599;22;45178;-74
2023/05/12 17:54:52;;;;;;;;;4.00;3.00;;;;;;;;6372224;22;45316;-74
2023/05/12 17:57:17;;;;;;;;;2.00;2.00;;;;;;;;6343019;22;46016;-73
2023/05/12 17:59:42;;;;;;;;;3.00;3.00;;;;;;;;6372156;22;46269;-73
2023/05/12 18:02:08;;;;;;;;;6.00;6.00;;;;;;;;6372511;22;45240;-74
2023/05/12 18:04:33;;;;;;;;;2.67;2.67;;;;;;;;6371901;22;45136;-73
2023/05/12 18:06:58;;;;;;;;;5.00;5.00;;;;;;;;6370635;22;45085;-74
2023/05/12 18:09:24;;;;;;;;;7.67;6.00;;;;;;;;6372015;22;45235;-73
2023/05/12 18:11:49;;;;;;;;;16.67;14.67;;;;;;;;6372013;22;45173;-74
2023/05/12 18:14:15;;;;;;;;;8.00;6.00;;;;;;;;6371885;22;45203;-73
2023/05/12 18:16:40;;;;;;;;;5.00;5.00;;;;;;;;6372116;22;45160;-72
2023/05/12 18:19:05;;;;;;;;;4.00;3.00;;;;;;;;6371473;22;45279;-73
2023/05/12 18:21:31;;;;;;;;;6.00;5.00;;;;;;;;6371857;22;45229;-73
2023/05/12 18:23:56;;;;;;;;;5.00;5.00;;;;;;;;6372156;22;45201;-73
2023/05/12 18:26:22;;;;;;;;;3.00;3.00;;;;;;;;6372007;22;45550;-73
2023/05/12 18:28:47;;;;;;;;;3.00;3.00;;;;;;;;6372187;22;46260;-73
2023/05/12 18:31:12;;;;;;;;;9.67;9.67;;;;;;;;6372048;22;45214;-73
2023/05/12 18:33:38;;;;;;;;;12.67;10.67;;;;;;;;6370344;22;45250;-73
2023/05/12 18:36:06;;;;;;;;;7.33;7.33;;;;;;;;6371869;22;45222;-73
2023/05/12 18:38:31;;;;;;;;;8.00;5.33;;;;;;;;6370955;22;45448;-72
2023/05/12 18:40:56;;;;;;;;;8.00;6.00;;;;;;;;6371300;22;45226;-73
2023/05/12 18:43:22;;;;;;;;;10.00;9.00;;;;;;;;6343301;22;45244;-73
2023/05/12 18:45:48;;;;;;;;;12.00;11.33;;;;;;;;6371545;22;45172;-72
2023/05/12 18:48:13;;;;;;;;;9.33;9.33;;;;;;;;6371071;22;45360;-72
2023/05/12 18:50:38;;;;;;;;;9.00;8.33;;;;;;;;6371520;22;45131;-73
2023/05/12 18:53:03;;;;;;;;;14.67;13.67;;;;;;;;6371600;22;45159;-72
2023/05/12 18:55:28;;;;;;;;;19.00;17.00;;;;;;;;6371658;22;45350;-73
2023/05/12 18:57:53;;;;;;;;;21.67;20.33;;;;;;;;6342331;22;45272;-73
2023/05/12 19:00:24;;;;;;;;;22.25;22.25;;;;;;;;6342303;22;45140;-73
2023/05/12 19:02:49;;;;;;;;;20.67;18.67;;;;;;;;6342581;22;45255;-73
2023/05/12 19:05:15;;;;;;;;;14.00;13.33;;;;;;;;6371450;22;45282;-73
2023/05/12 19:07:40;;;;;;;;;9.67;9.67;;;;;;;;6370833;22;45184;-73
2023/05/12 19:10:05;;;;;;;;;7.67;7.67;;;;;;;;6373055;22;45357;-73
2023/05/12 19:12:31;;;;;;;;;11.67;11.33;;;;;;;;6372588;22;45468;-73
2023/05/12 19:14:56;;;;;;;;;9.00;9.00;;;;;;;;6372960;22;45219;-73
2023/05/12 19:17:21;;;;;;;;;10.00;8.33;;;;;;;;6344368;22;46343;-73
2023/05/12 19:19:47;;;;;;;;;7.33;5.67;;;;;;;;6372450;22;45180;-72
2023/05/12 19:22:13;;;;;;;;;5.00;3.00;;;;;;;;6373551;22;45253;-73
2023/05/12 19:24:38;;;;;;;;;7.67;6.33;;;;;;;;6372698;22;45420;-73
2023/05/12 19:27:03;;;;;;;;;5.00;5.00;;;;;;;;6373030;22;46322;-72
2023/05/12 19:29:29;;;;;;;;;3.00;3.00;;;;;;;;6372790;22;45190;-73
2023/05/12 19:31:54;;;;;;;;;4.67;3.67;;;;;;;;6372835;22;45388;-72
2023/05/12 19:34:20;;;;;;;;;4.33;4.33;;;;;;;;6371915;22;45246;-73
2023/05/12 19:36:45;;;;;;;;;3.00;3.00;;;;;;;;6372407;22;45857;-72
2023/05/12 19:39:10;;;;;;;;;6.67;5.67;;;;;;;;6372465;22;45175;-72
2023/05/12 19:41:36;;;;;;;;;3.33;3.33;;;;;;;;6344353;22;45461;-72
2023/05/12 19:44:01;;;;;;;;;3.67;3.67;;;;;;;;6343604;22;45425;-71
2023/05/12 19:46:27;;;;;;;;;4.67;4.67;;;;;;;;6373050;22;46254;-71
2023/05/12 19:48:53;;;;;;;;;3.00;3.00;;;;;;;;6343283;22;45128;-71
2023/05/12 19:51:18;;;;;;;;;4.67;4.00;;;;;;;;6372905;22;45343;-71
2023/05/12 19:53:43;;;;;;;;;3.67;3.67;;;;;;;;6372630;22;45366;-71
2023/05/12 19:56:08;;;;;;;;;7.00;7.00;;;;;;;;6372586;22;46350;-71
2023/05/12 19:58:33;;;;;;;;;7.67;7.67;;;;;;;;6372486;22;45222;-73
2023/05/12 20:00:59;;;;;;;;;6.00;6.00;;;;;;;;6344593;22;45270;-71
2023/05/12 20:03:25;;;;;;;;;9.00;8.00;;;;;;;;6371751;22;45245;-73
2023/05/12 20:05:50;;;;;;;;;6.67;6.67;;;;;;;;6343447;22;47712;-73
2023/05/12 20:08:15;;;;;;;;;6.67;6.33;;;;;;;;6372171;22;45290;-73
2023/05/12 20:10:40;;;;;;;;;8.33;8.33;;;;;;;;6372849;22;45246;-73
2023/05/12 20:13:06;;;;;;;;;10.00;9.00;;;;;;;;6343297;22;45238;-73
2023/05/12 20:15:32;;;;;;;;;6.00;6.00;;;;;;;;6372491;22;46136;-73
2023/05/12 20:17:58;;;;;;;;;8.33;7.00;;;;;;;;6371307;22;45166;-73
2023/05/12 20:20:23;;;;;;;;;8.00;8.00;;;;;;;;6343443;22;45263;-73
2023/05/12 20:22:48;;;;;;;;;6.33;5.33;;;;;;;;6372222;22;45202;-73
2023/05/12 20:25:15;;;;;;;;;10.33;8.00;;;;;;;;6372435;22;45258;-73
